Time;durP1;ratioP1;P1;durP2;ratioP2;P2;SDS_P1;SDS_P2;PMS_P1;PMS_P2;Temp;Humidity;BMP_temperature;BMP_pressure;BME280_temperature;BME280_humidity;BME280_pressure;Samples;Min_cycle;Max_cycle;Signal;HPM_P1;HPM_P2
2022/03/02 00:02:16;;;;;;;8.30;4.47;;;;;;;-0.94;62.90;101282.84;1375034;89;21288;-85
2022/03/02 00:04:44;;;;;;;9.63;4.00;;;;;;;-0.94;63.00;101278.11;1375314;89;21369;-86
2022/03/02 00:07:12;;;;;;;9.95;4.33;;;;;;;-0.98;63.07;101279.09;1376779;88;21318;-85
2022/03/02 00:09:39;;;;;;;8.93;4.30;;;;;;;-0.95;63.01;101277.27;1375690;89;22213;-84
2022/03/02 00:12:07;;;;;;;8.43;3.83;;;;;;;-0.95;62.96;101273.36;1376165;89;22191;-85
2022/03/02 00:14:34;;;;;;;11.93;4.03;;;;;;;-0.94;63.01;101273.75;1376388;89;21429;-86
2022/03/02 00:17:01;;;;;;;7.25;3.92;;;;;;;-0.93;62.92;101265.05;1376143;89;21274;-85
2022/03/02 00:19:28;;;;;;;13.72;5.60;;;;;;;-0.95;63.06;101268.17;1376384;88;21303;-86
2022/03/02 00:21:55;;;;;;;9.03;4.72;;;;;;;-0.92;62.42;101266.76;1376159;89;21326;-85
2022/03/02 00:24:23;;;;;;;12.00;4.20;;;;;;;-0.94;62.96;101271.15;1376586;88;21259;-86
2022/03/02 00:26:51;;;;;;;10.80;5.75;;;;;;;-0.97;63.23;101272.56;1376080;89;21319;-86
2022/03/02 00:29:18;;;;;;;9.55;4.03;;;;;;;-0.95;62.77;101268.59;1377039;88;21477;-86
2022/03/02 00:31:46;;;;;;;12.28;4.65;;;;;;;-1.02;63.41;101263.22;1376791;88;21295;-85
2022/03/02 00:34:14;;;;;;;8.98;4.80;;;;;;;-1.01;63.35;101264.45;1357341;91;21330;-86
2022/03/02 00:36:41;;;;;;;9.43;5.12;;;;;;;-1.04;63.55;101263.27;1376588;88;21399;-84
2022/03/02 00:39:09;;;;;;;11.43;5.12;;;;;;;-1.04;63.52;101265.86;1376781;88;21244;-85
2022/03/02 00:41:36;;;;;;;9.58;3.90;;;;;;;-1.07;63.54;101267.27;1376755;88;21378;-85
2022/03/02 00:44:04;;;;;;;7.22;4.72;;;;;;;-1.12;63.73;101261.41;1377148;88;21304;-86
2022/03/02 00:46:32;;;;;;;11.38;5.40;;;;;;;-1.16;64.12;101259.80;1376359;89;21348;-84
2022/03/02 00:49:02;;;;;;;12.03;5.10;;;;;;;-1.17;64.04;101256.81;1376633;88;21304;-85
2022/03/02 00:51:30;;;;;;;10.55;5.70;;;;;;;-1.19;64.17;101251.66;1356858;91;21444;-86
2022/03/02 00:53:58;;;;;;;9.43;4.35;;;;;;;-1.20;64.17;101253.02;1339703;92;22989;-86
2022/03/02 00:56:26;;;;;;;10.53;4.20;;;;;;;-1.22;64.21;101250.92;1376782;88;21207;-86
2022/03/02 00:58:53;;;;;;;9.95;4.80;;;;;;;-1.27;64.25;101243.27;1376304;89;21289;-86
2022/03/02 01:01:20;;;;;;;18.17;7.37;;;;;;;-1.31;64.27;101239.55;1376629;88;21318;-85
2022/03/02 01:03:49;;;;;;;9.55;5.08;;;;;;;-1.38;64.54;101241.52;1376811;88;21377;-86
2022/03/02 01:06:17;;;;;;;10.25;4.78;;;;;;;-1.44;64.89;101238.67;1374979;89;21385;-85
2022/03/02 01:08:45;;;;;;;13.55;5.90;;;;;;;-1.46;64.57;101236.56;1368961;89;21229;-85
2022/03/02 01:11:12;;;;;;;11.20;5.40;;;;;;;-1.46;64.37;101235.27;1374818;89;21275;-84
2022/03/02 01:13:39;;;;;;;14.63;5.50;;;;;;;-1.45;64.12;101231.77;1362668;89;21378;-85
2022/03/02 01:16:06;;;;;;;12.03;5.28;;;;;;;-1.48;64.84;101234.46;1359647;90;21444;-84
2022/03/02 01:18:34;;;;;;;9.65;4.35;;;;;;;-1.49;64.74;101224.98;1375109;88;21363;-84
2022/03/02 01:21:02;;;;;;;14.83;6.17;;;;;;;-1.54;65.15;101222.98;1361816;91;21267;-84
2022/03/02 01:23:29;;;;;;;11.85;5.35;;;;;;;-1.52;64.90;101225.09;1375169;89;22258;-85
2022/03/02 01:25:57;;;;;;;14.75;6.62;;;;;;;-1.52;64.54;101219.90;1375263;89;21304;-84
2022/03/02 01:28:44;;;;;;;13.50;6.80;;;;;;;-1.53;64.93;101224.67;1374972;90;22132;-84
2022/03/02 01:31:21;;;;;;;13.28;5.80;;;;;;;-1.58;65.22;101221.41;1374802;89;22265;-84
2022/03/02 01:33:49;;;;;;;13.40;6.35;;;;;;;-1.62;65.81;101221.09;1375327;89;21356;-85
2022/03/02 01:36:17;;;;;;;15.28;6.25;;;;;;;-1.64;65.94;101215.09;1375472;89;21267;-84
2022/03/02 01:38:44;;;;;;;23.75;9.33;;;;;;;-1.67;65.98;101208.28;1375161;89;21326;-85
2022/03/02 01:41:17;;;;;;;16.70;6.37;;;;;;;-1.64;65.47;101208.60;1374796;90;21230;-85
2022/03/02 01:43:45;;;;;;;17.20;7.85;;;;;;;-1.66;65.99;101215.16;1374778;89;21474;-84
2022/03/02 01:46:14;;;;;;;16.42;7.12;;;;;;;-1.69;66.32;101213.96;1362719;89;21478;-84
2022/03/02 01:48:42;;;;;;;18.40;7.87;;;;;;;-1.69;66.25;101211.37;1374959;89;22828;-85
2022/03/02 01:51:09;;;;;;;16.02;6.85;;;;;;;-1.69;66.43;101207.92;1362525;90;22391;-85
2022/03/02 01:53:37;;;;;;;21.77;8.18;;;;;;;-1.69;66.13;101209.23;1361833;90;22313;-85
2022/03/02 01:56:04;;;;;;;15.00;6.12;;;;;;;-1.73;66.87;101204.56;1362230;90;22368;-85
2022/03/02 01:58:32;;;;;;;14.58;6.45;;;;;;;-1.72;66.61;101206.73;1374784;89;22744;-86
2022/03/02 02:01:00;;;;;;;16.12;7.42;;;;;;;-1.72;67.24;101202.84;1375483;90;22354;-85
2022/03/02 02:03:28;;;;;;;15.28;7.00;;;;;;;-1.70;67.17;101200.56;1376432;88;21422;-85
2022/03/02 02:05:56;;;;;;;16.65;6.95;;;;;;;-1.66;67.15;101197.44;1374869;89;21341;-85
2022/03/02 02:08:23;;;;;;;14.98;6.67;;;;;;;-1.68;67.36;101192.74;1375043;90;21385;-84
2022/03/02 02:10:50;;;;;;;17.73;8.10;;;;;;;-1.65;66.81;101186.15;1361964;90;21371;-85
2022/03/02 02:13:17;;;;;;;17.55;8.13;;;;;;;-1.66;67.42;101186.61;1373263;89;21379;-85
2022/03/02 02:15:45;;;;;;;17.40;8.20;;;;;;;-1.68;67.66;101180.61;1371497;90;21298;-84
2022/03/02 02:18:12;;;;;;;19.07;8.60;;;;;;;-1.65;67.86;101175.77;1371487;90;22237;-84
2022/03/02 02:20:40;;;;;;;21.00;8.90;;;;;;;-1.64;67.86;101176.16;1371465;90;22480;-85
2022/03/02 02:23:08;;;;;;;18.37;8.40;;;;;;;-1.59;67.71;101179.45;1370561;90;21268;-85
2022/03/02 02:25:35;;;;;;;17.80;7.35;;;;;;;-1.58;67.46;101170.78;1371057;90;21457;-85
2022/03/02 02:28:02;;;;;;;17.10;6.92;;;;;;;-1.57;67.81;101169.88;1358703;89;21460;-85
2022/03/02 02:30:30;;;;;;;10.68;5.83;;;;;;;-1.54;67.71;101172.81;1371177;90;21430;-85
2022/03/02 02:32:58;;;;;;;19.23;8.45;;;;;;;-1.54;67.76;101171.06;1371218;90;21520;-85
2022/03/02 02:35:25;;;;;;;15.85;7.22;;;;;;;-1.52;67.67;101167.98;1370946;90;22126;-84
2022/03/02 02:37:53;;;;;;;13.83;6.87;;;;;;;-1.47;67.66;101169.94;1371282;90;22295;-85
2022/03/02 02:40:22;;;;;;;16.97;7.72;;;;;;;-1.47;67.60;101168.64;1370847;89;21489;-85
2022/03/02 02:42:50;;;;;;;14.68;6.08;;;;;;;-1.41;67.34;101161.97;1370632;89;21437;-85
2022/03/02 02:45:20;;;;;;;16.97;7.25;;;;;;;-1.36;67.19;101166.52;1370775;90;21431;-85
2022/03/02 02:47:58;;;;;;;13.95;6.67;;;;;;;-1.37;67.28;101164.00;1370165;89;21506;-86
2022/03/02 02:50:31;;;;;;;15.63;6.53;;;;;;;-1.33;67.07;101159.53;1370461;90;21446;-86
2022/03/02 02:53:03;;;;;;;12.80;5.92;;;;;;;-1.31;66.91;101159.04;1369417;90;21319;-87
2022/03/02 02:55:31;;;;;;;13.10;6.62;;;;;;;-1.30;66.70;101158.13;1359618;89;21296;-87
2022/03/02 02:57:59;;;;;;;14.28;7.83;;;;;;;-1.25;66.50;101157.06;1373229;90;21326;-87
2022/03/02 03:00:32;;;;;;;21.33;7.33;;;;;;;-1.23;66.33;101160.47;1368920;89;21290;-86
2022/03/02 03:03:00;;;;;;;17.40;7.97;;;;;;;-1.24;66.29;101157.45;1357519;91;22247;-86
2022/03/02 03:05:30;;;;;;;20.43;8.10;;;;;;;-1.19;66.08;101156.84;1356389;90;21401;-86
2022/03/02 03:08:00;;;;;;;13.68;7.83;;;;;;;-1.19;66.01;101154.70;1356680;91;21320;-86
2022/03/02 03:10:27;;;;;;;16.75;7.67;;;;;;;-1.21;66.13;101152.59;1356529;91;21438;-86
2022/03/02 03:12:55;;;;;;;13.95;6.53;;;;;;;-1.17;65.88;101149.01;1357018;90;21489;-86
2022/03/02 03:15:22;;;;;;;14.10;7.10;;;;;;;-1.16;65.59;101148.09;1370052;88;21517;-87
2022/03/02 03:17:51;;;;;;;18.32;8.33;;;;;;;-1.16;65.73;101148.09;1375814;90;21525;-87
2022/03/02 03:20:24;;;;;;;16.02;7.78;;;;;;;-1.15;65.60;101142.02;1375350;88;21414;-85
2022/03/02 03:22:54;;;;;;;14.00;7.20;;;;;;;-1.16;65.60;101148.09;1375393;88;21318;-86
2022/03/02 03:25:22;;;;;;;13.78;7.35;;;;;;;-1.17;65.54;101145.11;1362283;90;21369;-86
2022/03/02 03:27:50;;;;;;;16.97;8.20;;;;;;;-1.16;65.50;101139.84;1375604;88;22220;-86
2022/03/02 03:30:20;;;;;;;14.87;6.28;;;;;;;-1.16;65.47;101130.75;1375360;89;21348;-86
2022/03/02 03:32:48;;;;;;;14.90;7.10;;;;;;;-1.15;65.42;101123.83;1375762;88;21325;-87
2022/03/02 03:35:19;;;;;;;18.42;7.45;;;;;;;-1.16;65.37;101119.52;1375838;88;22272;-86
2022/03/02 03:37:46;;;;;;;20.57;8.58;;;;;;;-1.16;65.38;101119.52;1375753;89;21453;-86
2022/03/02 03:40:16;;;;;;;15.03;7.67;;;;;;;-1.20;65.48;101113.59;1361955;90;22272;-87
2022/03/02 03:42:44;;;;;;;18.30;8.13;;;;;;;-1.17;65.37;101106.98;1362550;90;22286;-86
2022/03/02 03:45:13;;;;;;;18.98;7.50;;;;;;;-1.17;65.21;101107.45;1375564;89;22346;-87
2022/03/02 03:47:40;;;;;;;16.90;7.15;;;;;;;-1.16;65.18;101100.88;1375934;88;21311;-87
2022/03/02 03:50:09;;;;;;;21.70;8.75;;;;;;;-1.15;65.01;101101.30;1375391;89;21288;-86
2022/03/02 03:52:37;;;;;;;18.20;8.53;;;;;;;-1.14;64.96;101096.94;1375836;88;22394;-86
2022/03/02 03:55:06;;;;;;;19.98;8.60;;;;;;;-1.13;64.87;101093.42;1375438;89;22198;-87
2022/03/02 03:57:33;;;;;;;20.75;9.03;;;;;;;-1.07;64.71;101095.80;1375930;88;21407;-86
2022/03/02 04:00:04;;;;;;;14.78;6.50;;;;;;;-1.07;64.68;101093.66;1375529;88;21311;-86
2022/03/02 04:02:31;;;;;;;11.93;5.97;;;;;;;-1.07;64.71;101091.89;1375537;89;21259;-86
2022/03/02 04:04:59;;;;;;;20.32;9.63;;;;;;;-1.06;64.69;101091.02;1376925;89;21362;-86
2022/03/02 04:07:26;;;;;;;21.05;9.35;;;;;;;-1.01;64.54;101092.96;1376711;89;22228;-86
2022/03/02 04:09:53;;;;;;;21.07;7.95;;;;;;;-0.99;64.44;101090.32;1377129;88;21273;-86
2022/03/02 04:12:20;;;;;;;19.00;9.15;;;;;;;-0.96;64.44;101087.60;1377304;88;22257;-86
2022/03/02 04:14:48;;;;;;;17.92;6.75;;;;;;;-0.97;64.22;101089.36;1376841;89;21268;-87
2022/03/02 04:17:15;;;;;;;15.68;8.85;;;;;;;-0.95;64.10;101087.98;1376838;88;22273;-87
2022/03/02 04:19:42;;;;;;;18.75;8.50;;;;;;;-0.91;64.01;101089.58;1376913;89;21274;-87
2022/03/02 04:22:09;;;;;;;17.92;8.20;;;;;;;-0.87;64.00;101090.31;1377044;89;22272;-87
2022/03/02 04:24:37;;;;;;;19.90;8.73;;;;;;;-0.89;63.98;101090.81;1376969;89;21267;-87
2022/03/02 04:27:05;;;;;;;17.32;8.75;;;;;;;-0.87;63.90;101091.61;1376907;89;21436;-83
2022/03/02 04:29:32;;;;;;;27.05;9.33;;;;;;;-0.88;63.88;101090.77;1377036;89;22212;-83
2022/03/02 04:31:59;;;;;;;24.18;10.23;;;;;;;-0.87;63.89;101091.14;1376824;89;22213;-84
2022/03/02 04:34:27;;;;;;;25.70;9.18;;;;;;;-0.86;63.84;101085.48;1377018;89;22263;-84
2022/03/02 04:36:54;;;;;;;20.50;10.23;;;;;;;-0.83;63.67;101089.30;1376752;89;21377;-84
2022/03/02 04:39:21;;;;;;;18.07;8.58;;;;;;;-0.85;63.74;101089.80;1377008;89;21370;-85
2022/03/02 04:41:48;;;;;;;18.10;7.97;;;;;;;-0.85;63.67;101084.61;1377201;88;21421;-85
2022/03/02 04:44:15;;;;;;;18.05;8.55;;;;;;;-0.83;63.57;101089.30;1376991;89;21384;-85
2022/03/02 04:46:48;;;;;;;18.98;8.03;;;;;;;-0.84;63.48;101086.29;1357856;91;22323;-84
2022/03/02 04:49:13;;;;;;;14.65;7.10;;;;;;;-0.88;63.53;101080.83;1376311;90;21362;-85
2022/03/02 04:51:40;;;;;;;16.42;7.72;;;;;;;-0.85;63.40;101079.41;1376975;89;21348;-85
2022/03/02 04:54:08;;;;;;;16.48;7.65;;;;;;;-0.87;63.46;101078.16;1376899;89;21333;-85
2022/03/02 04:56:35;;;;;;;17.50;8.93;;;;;;;-0.89;63.57;101079.11;1358014;91;21282;-85
2022/03/02 04:59:03;;;;;;;18.98;8.73;;;;;;;-0.94;63.57;101077.55;1358797;91;21474;-86
2022/03/02 05:01:30;;;;;;;21.20;9.13;;;;;;;-0.97;63.54;101072.47;1358899;91;21489;-85
2022/03/02 05:03:57;;;;;;;20.72;7.33;;;;;;;-1.00;63.58;101074.34;1359216;91;21621;-86
2022/03/02 05:06:25;;;;;;;22.75;10.60;;;;;;;-1.05;63.78;101076.27;1358208;91;21414;-85
2022/03/02 05:08:52;;;;;;;18.12;8.18;;;;;;;-1.14;64.08;101073.56;1358165;91;21436;-85
2022/03/02 05:11:19;;;;;;;24.32;9.05;;;;;;;-1.20;64.34;101071.20;1358850;91;21459;-85
2022/03/02 05:13:46;;;;;;;17.12;8.10;;;;;;;-1.23;64.29;101072.61;1339017;92;21452;-86
2022/03/02 05:16:13;;;;;;;21.30;8.80;;;;;;;-1.26;64.49;101074.02;1358702;91;22317;-85
2022/03/02 05:18:44;;;;;;;13.83;6.53;;;;;;;-1.29;64.94;101071.08;1358758;90;22357;-85
2022/03/02 05:21:09;;;;;;;17.82;9.40;;;;;;;-1.30;64.79;101067.23;1357827;92;21326;-83
2022/03/02 05:23:36;;;;;;;15.53;7.75;;;;;;;-1.25;64.77;101075.25;1358268;91;21304;-85
2022/03/02 05:26:03;;;;;;;19.17;9.20;;;;;;;-1.26;64.49;101072.27;1339052;92;21363;-85
2022/03/02 05:28:30;;;;;;;18.95;9.03;;;;;;;-1.24;64.44;101073.49;1359105;91;21473;-86
2022/03/02 05:30:57;;;;;;;17.27;7.85;;;;;;;-1.20;64.35;101072.49;1358246;91;21466;-87
2022/03/02 05:33:24;;;;;;;19.48;10.50;;;;;;;-1.22;64.51;101067.80;1358520;91;22244;-87
2022/03/02 05:35:51;;;;;;;16.60;9.90;;;;;;;-1.17;64.50;101068.48;1358483;91;22251;-87
2022/03/02 05:38:18;;;;;;;17.62;8.90;;;;;;;-1.18;64.46;101072.84;1358466;91;21444;-88
2022/03/02 05:40:45;;;;;;;20.85;8.85;;;;;;;-1.19;64.59;101071.12;1358249;91;21289;-88
2022/03/02 05:43:12;;;;;;;18.05;9.60;;;;;;;-1.19;64.51;101068.98;1358235;91;21283;-88
2022/03/02 05:45:39;;;;;;;21.57;9.10;;;;;;;-1.09;64.22;101070.34;1358206;91;21363;-87
2022/03/02 05:48:06;;;;;;;19.62;10.28;;;;;;;-1.03;64.17;101068.81;1359108;91;21282;-87
2022/03/02 05:50:33;;;;;;;24.30;10.32;;;;;;;-0.98;63.93;101072.09;1358232;91;21423;-86
2022/03/02 05:53:00;;;;;;;19.95;9.35;;;;;;;-0.93;63.77;101071.44;1358224;91;21223;-86
2022/03/02 05:55:28;;;;;;;24.45;10.00;;;;;;;-0.87;63.52;101077.31;1358124;91;21512;-88
2022/03/02 05:57:55;;;;;;;18.80;9.75;;;;;;;-0.84;63.20;101086.29;1358628;91;22324;-88
2022/03/02 06:00:22;;;;;;;23.90;10.85;;;;;;;-0.73;63.44;101090.63;1358434;91;21415;-87
2022/03/02 06:02:50;;;;;;;24.30;11.25;;;;;;;-0.70;62.79;101082.70;1358418;91;21430;-87
2022/03/02 06:05:17;;;;;;;31.12;13.05;;;;;;;-0.63;62.81;101088.50;1362001;90;21488;-86
2022/03/02 06:07:44;;;;;;;31.50;12.63;;;;;;;-0.61;62.27;101090.14;1363872;89;21296;-87
2022/03/02 06:10:14;;;;;;;25.45;12.28;;;;;;;-0.52;62.23;101098.91;1363961;89;21478;-87
2022/03/02 06:12:42;;;;;;;22.35;9.90;;;;;;;-0.44;62.20;101096.44;1363669;90;21259;-88
2022/03/02 06:15:12;;;;;;;22.58;11.00;;;;;;;-0.40;61.53;101098.00;1364372;89;21296;-88
2022/03/02 06:17:41;;;;;;;18.20;9.83;;;;;;;-0.31;61.86;101093.75;1364157;90;21407;-88
2022/03/02 06:20:10;;;;;;;23.85;10.10;;;;;;;-0.23;61.35;101096.89;1364466;89;21422;-88
2022/03/02 06:22:37;;;;;;;24.32;9.70;;;;;;;-0.14;61.43;101093.07;1364172;89;21282;-87
2022/03/02 06:25:09;;;;;;;13.88;7.42;;;;;;;-0.09;61.02;101095.00;1363806;90;21222;-87
2022/03/02 06:27:38;;;;;;;21.10;9.63;;;;;;;-0.01;60.82;101100.28;1363925;89;21333;-88
2022/03/02 06:30:07;;;;;;;18.45;8.85;;;;;;;0.06;60.56;101098.72;1364353;90;21398;-84
2022/03/02 06:32:35;;;;;;;21.42;9.75;;;;;;;0.09;60.06;101090.36;1363787;90;22251;-84
2022/03/02 06:35:02;;;;;;;19.65;9.28;;;;;;;0.15;60.27;101089.25;1364108;90;21326;-86
2022/03/02 06:37:33;;;;;;;20.08;9.83;;;;;;;0.21;60.00;101092.89;1363884;89;21244;-81
2022/03/02 06:39:58;;;;;;;27.93;11.20;;;;;;;0.24;59.61;101086.25;1364218;89;22271;-82
2022/03/02 06:42:52;;;;;;;20.68;9.93;;;;;;;0.31;59.28;101081.62;1364173;90;22291;-82
2022/03/02 06:45:27;;;;;;;23.77;10.90;;;;;;;0.33;59.37;101080.64;1362408;89;21548;-83
2022/03/02 06:48:06;;;;;;;29.70;14.25;;;;;;;0.43;59.17;101081.95;1362737;90;21296;-83
2022/03/02 06:50:36;;;;;;;33.08;17.00;;;;;;;0.49;58.85;101089.95;1362405;90;22331;-83
2022/03/02 06:53:07;;;;;;;32.98;16.55;;;;;;;0.62;59.13;101076.76;1362694;89;21289;-83
2022/03/02 06:55:34;;;;;;;21.48;9.65;;;;;;;0.69;58.99;101079.92;1351373;91;21510;-87
2022/03/02 06:58:04;;;;;;;24.15;11.75;;;;;;;0.66;58.28;101078.34;1363670;89;21469;-88
2022/03/02 07:00:32;;;;;;;34.88;16.77;;;;;;;0.76;58.28;101068.33;1352066;91;21355;-87
2022/03/02 07:03:11;;;;;;;19.50;9.18;;;;;;;0.81;57.96;101065.06;1363082;90;21437;-86
2022/03/02 07:05:39;;;;;;;26.68;12.80;;;;;;;0.83;57.67;101067.13;1363952;89;22296;-87
2022/03/02 07:08:08;;;;;;;21.30;10.03;;;;;;;0.98;57.67;101065.61;1363323;90;21444;-87
2022/03/02 07:10:37;;;;;;;17.50;8.47;;;;;;;0.99;57.26;101063.84;1362934;89;21410;-88
2022/03/02 07:13:07;;;;;;;18.95;10.13;;;;;;;1.09;57.15;101055.96;1363854;90;22970;-88
2022/03/02 07:15:34;;;;;;;25.50;10.25;;;;;;;1.13;56.90;101057.06;1352181;90;21281;-87
2022/03/02 07:18:04;;;;;;;18.87;10.20;;;;;;;1.21;56.90;101059.32;1362667;89;21362;-87
2022/03/02 07:20:31;;;;;;;19.70;9.97;;;;;;;1.22;56.71;101064.91;1363937;89;21636;-88
2022/03/02 07:23:02;;;;;;;14.87;7.80;;;;;;;1.33;56.50;101054.81;1362423;90;21431;-87
2022/03/02 07:25:37;;;;;;;13.85;6.62;;;;;;;1.35;56.39;101059.94;1363290;90;21385;-88
2022/03/02 07:28:06;;;;;;;21.13;10.23;;;;;;;1.38;56.17;101062.88;1362971;89;21495;-87
2022/03/02 07:30:34;;;;;;;19.27;9.03;;;;;;;1.40;56.27;101050.61;1362858;90;21709;-87
2022/03/02 07:33:04;;;;;;;19.07;9.97;;;;;;;1.45;55.97;101061.67;1363410;90;21687;-87
2022/03/02 07:35:49;;;;;;;25.63;9.90;;;;;;;1.54;55.98;101050.78;1362751;89;22536;-84
2022/03/02 07:38:17;;;;;;;20.50;9.93;;;;;;;1.76;55.93;101056.65;1376810;89;21655;-85
2022/03/02 07:40:45;;;;;;;26.57;11.50;;;;;;;1.84;55.46;101052.80;1378031;89;21535;-87
2022/03/02 07:43:15;;;;;;;17.50;8.37;;;;;;;1.99;55.76;101046.83;1366465;90;21509;-88
2022/03/02 07:45:43;;;;;;;21.53;8.90;;;;;;;2.05;55.00;101042.59;1370734;89;21726;-88
2022/03/02 07:48:10;;;;;;;22.53;9.83;;;;;;;1.98;54.64;101042.05;1377609;90;21619;-87
2022/03/02 07:50:40;;;;;;;22.40;10.07;;;;;;;2.09;54.72;101046.73;1378597;88;21538;-84
2022/03/02 07:53:10;;;;;;;52.23;24.10;;;;;;;2.11;54.91;101046.20;1379564;89;21587;-84
2022/03/02 07:55:41;;;;;;;14.25;7.87;;;;;;;2.38;55.17;101041.31;1378092;90;23487;-85
2022/03/02 07:58:08;;;;;;;25.80;11.43;;;;;;;2.34;54.52;101049.41;1380490;89;21470;-83
2022/03/02 08:00:36;;;;;;;18.27;9.03;;;;;;;2.56;54.99;101042.14;1377844;90;21317;-86
2022/03/02 08:03:06;;;;;;;54.70;23.80;;;;;;;2.85;56.79;101035.78;1378097;89;21673;-87
2022/03/02 08:05:33;;;;;;;37.50;18.00;;;;;;;3.14;54.46;101041.59;1379044;89;22343;-87
2022/03/02 08:08:01;;;;;;;17.83;9.40;;;;;;;3.35;55.16;101049.16;1379225;89;21503;-86
2022/03/02 08:10:36;;;;;;;22.67;8.97;;;;;;;3.29;53.45;101037.73;1378193;89;23069;-91
2022/03/02 08:13:04;;;;;;;18.30;7.90;;;;;;;3.15;52.44;101036.72;1366029;90;21551;-90
2022/03/02 08:15:32;;;;;;;19.83;9.40;;;;;;;3.15;52.63;101033.27;1379301;89;21499;-90
2022/03/02 08:17:59;;;;;;;18.03;8.90;;;;;;;3.28;53.08;101038.65;1377957;89;21546;-90
2022/03/02 08:20:26;;;;;;;33.30;15.73;;;;;;;3.23;52.62;101032.86;1378293;89;21588;-90
2022/03/02 08:23:05;;;;;;;36.70;18.33;;;;;;;3.36;52.97;101035.98;1379723;89;21628;-90
2022/03/02 08:25:47;;;;;;;15.13;7.60;;;;;;;3.53;52.94;101036.33;1379582;89;21589;-91
2022/03/02 08:28:16;;;;;;;17.70;8.07;;;;;;;3.39;51.41;101032.34;1377853;88;21783;-91
2022/03/02 08:30:46;;;;;;;15.93;8.70;;;;;;;3.34;52.41;101037.02;1368089;89;21733;-90
2022/03/02 08:33:29;;;;;;;18.87;9.37;;;;;;;3.24;52.34;101030.61;1378137;90;21630;-90
2022/03/02 08:35:59;;;;;;;16.00;8.37;;;;;;;3.39;52.48;101032.34;1378577;89;21919;-90
2022/03/02 08:38:28;;;;;;;14.07;8.27;;;;;;;3.40;51.90;101032.75;1366414;91;21521;-90
2022/03/02 08:40:55;;;;;;;15.80;8.47;;;;;;;3.66;52.09;101023.87;1378704;89;21752;-91
2022/03/02 08:43:24;;;;;;;9.30;4.90;;;;;;;3.82;51.81;101022.03;1378420;89;21772;-89
2022/03/02 08:45:53;;;;;;;9.20;5.37;;;;;;;3.69;50.95;101017.98;1378961;90;21742;-91
2022/03/02 08:48:20;;;;;;;11.83;6.57;;;;;;;4.00;51.33;101017.04;1378149;89;21734;-91
2022/03/02 08:50:51;;;;;;;16.93;7.40;;;;;;;4.00;51.02;101023.59;1378639;89;21926;-91
2022/03/02 08:53:18;;;;;;;11.13;6.23;;;;;;;4.00;51.02;101023.59;1379287;88;21645;-89
2022/03/02 08:55:47;;;;;;;21.43;9.77;;;;;;;4.02;50.73;101007.29;1379290;89;22061;-86
2022/03/02 08:58:15;;;;;;;11.20;6.63;;;;;;;4.09;51.21;101013.03;1376911;89;22151;-92
2022/03/02 09:00:51;;;;;;;7.93;4.13;;;;;;;4.39;50.25;100999.84;1377991;89;22007;-90
2022/03/02 09:03:22;;;;;;;11.10;5.73;;;;;;;4.42;49.84;100998.81;1366916;91;21937;-90
2022/03/02 09:05:50;;;;;;;10.18;5.10;;;;;;;4.47;49.87;101004.14;1375097;89;23164;-89
2022/03/02 09:08:18;;;;;;;12.00;7.07;;;;;;;4.75;49.66;101004.59;1362431;89;21248;-89
2022/03/02 09:10:46;;;;;;;10.10;5.07;;;;;;;4.89;49.40;101002.86;1366973;88;23714;-89
2022/03/02 09:13:20;;;;;;;14.83;6.20;;;;;;;4.72;49.21;100996.08;1351044;91;22282;-90
2022/03/02 09:15:47;;;;;;;10.53;5.17;;;;;;;5.01;49.15;100995.55;1348233;91;21951;-88
2022/03/02 09:18:14;;;;;;;9.07;4.13;;;;;;;4.96;48.84;100991.06;1347120;91;22164;-92
2022/03/02 09:20:43;;;;;;;16.27;6.57;;;;;;;5.20;48.29;100984.70;1368451;89;22030;-89
2022/03/02 09:23:10;;;;;;;10.17;6.27;;;;;;;5.54;48.39;100980.70;1368030;91;22028;-89
2022/03/02 09:25:39;;;;;;;11.10;5.67;;;;;;;5.83;48.51;100977.92;1366714;90;22146;-88
2022/03/02 09:28:11;;;;;;;10.67;5.03;;;;;;;5.99;46.37;100972.03;1348423;91;21339;-88
2022/03/02 09:30:38;;;;;;;9.53;5.63;;;;;;;5.72;46.95;100972.55;1366984;91;21460;-88
2022/03/02 09:33:11;;;;;;;10.50;6.00;;;;;;;5.76;47.59;100965.67;1370165;89;21236;-90
2022/03/02 09:35:41;;;;;;;9.50;4.57;;;;;;;5.83;47.32;100965.62;1364989;89;23159;-89
2022/03/02 09:38:08;;;;;;;13.30;5.07;;;;;;;5.52;47.32;100962.05;1367149;89;21450;-89
2022/03/02 09:40:39;;;;;;;9.73;4.70;;;;;;;6.00;47.15;100958.42;1365563;89;21309;-88
2022/03/02 09:43:11;;;;;;;9.25;5.50;;;;;;;6.45;46.11;100950.92;1366425;89;21338;-88
2022/03/02 09:45:42;;;;;;;9.03;4.40;;;;;;;6.83;44.79;100955.23;1372015;89;21392;-89
2022/03/02 09:48:14;;;;;;;11.88;6.00;;;;;;;6.78;44.42;100945.86;1367987;89;21362;-89
2022/03/02 09:50:42;;;;;;;8.23;5.00;;;;;;;7.67;43.27;100944.56;1367731;89;21438;-88
2022/03/02 09:53:13;;;;;;;8.23;5.07;;;;;;;8.04;41.71;100933.02;1349831;91;21269;-88
2022/03/02 09:55:43;;;;;;;6.90;4.45;;;;;;;8.23;41.63;100931.08;1368016;89;21470;-89
2022/03/02 09:58:15;;;;;;;12.37;5.72;;;;;;;8.35;41.02;100926.19;1366938;89;22277;-89
2022/03/02 10:00:44;;;;;;;16.30;4.40;;;;;;;8.44;40.96;100932.56;1364221;89;21278;-89
2022/03/02 10:03:18;;;;;;;9.13;4.93;;;;;;;8.27;41.47;100927.27;1346502;93;22302;-88
2022/03/02 10:05:49;;;;;;;8.63;4.97;;;;;;;9.37;41.18;100914.87;1366173;91;22750;-88
2022/03/02 10:08:19;;;;;;;11.10;4.42;;;;;;;9.69;40.08;100918.28;1365845;89;21266;-88
2022/03/02 10:10:49;;;;;;;7.58;4.70;;;;;;;9.66;38.46;100907.14;1364832;90;21334;-88
2022/03/02 10:13:17;;;;;;;7.20;4.73;;;;;;;9.32;39.63;100903.39;1366055;90;21287;-88
2022/03/02 10:15:45;;;;;;;8.13;4.27;;;;;;;9.64;39.25;100893.23;1362137;89;21313;-88
2022/03/02 10:18:17;;;;;;;8.93;4.47;;;;;;;8.97;40.03;100896.55;1367694;89;21332;-88
2022/03/02 10:20:49;;;;;;;9.00;4.93;;;;;;;8.68;39.90;100892.33;1364876;90;21243;-89
2022/03/02 10:23:42;;;;;;;8.53;4.47;;;;;;;9.59;39.91;100883.53;1353253;89;22477;-90
2022/03/02 10:26:21;;;;;;;18.13;4.80;;;;;;;9.86;38.18;100889.09;1367099;90;21268;-88
2022/03/02 10:29:16;;;;;;;9.93;5.77;;;;;;;9.80;38.37;100883.50;1364296;90;21380;-88
2022/03/02 10:32:09;;;;;;;9.77;5.60;;;;;;;8.71;39.77;100885.48;1369244;90;22555;-88
2022/03/02 10:34:50;;;;;;;6.57;3.80;;;;;;;8.25;41.69;100880.39;1367503;90;22444;-89
2022/03/02 10:37:30;;;;;;;8.80;5.00;;;;;;;8.79;40.17;100879.10;1361637;89;21320;-88
2022/03/02 10:40:12;;;;;;;9.93;6.33;;;;;;;9.11;40.38;100863.73;1364847;90;22741;-89
2022/03/02 10:43:00;;;;;;;8.03;5.63;;;;;;;9.96;40.64;100861.39;1364914;89;21231;-89
2022/03/02 10:45:47;;;;;;;12.33;6.50;;;;;;;10.16;39.14;100855.69;1370307;90;21517;-89
2022/03/02 10:48:41;;;;;;;20.47;6.17;;;;;;;10.11;38.35;100853.92;1368045;91;21290;-89
2022/03/02 10:51:10;;;;;;;13.63;6.27;;;;;;;10.50;38.94;100845.64;1365973;90;22621;-88
2022/03/02 10:53:40;;;;;;;8.40;5.30;;;;;;;10.41;37.47;100853.55;1365841;89;21435;-90
2022/03/02 10:56:10;;;;;;;13.85;5.70;;;;;;;9.21;38.90;100847.49;1363893;90;21342;-88
2022/03/02 10:58:39;;;;;;;6.03;4.13;;;;;;;9.55;39.17;100833.22;1366518;90;21338;-90
2022/03/02 11:01:06;;;;;;;8.73;5.40;;;;;;;9.56;39.10;100828.30;1365500;90;21319;-89
2022/03/02 11:03:37;;;;;;;11.17;6.80;;;;;;;9.42;39.83;100815.78;1365130;90;21454;-88
2022/03/02 11:06:06;;;;;;;7.37;4.57;;;;;;;9.86;39.68;100823.00;1365910;90;21418;-89
2022/03/02 11:08:36;;;;;;;10.07;6.43;;;;;;;10.11;38.38;100806.33;1367999;90;21338;-89
2022/03/02 11:11:09;;;;;;;9.75;5.53;;;;;;;10.33;38.48;100812.75;1369956;90;21276;-89
2022/03/02 11:13:37;;;;;;;7.73;4.53;;;;;;;10.59;38.31;100806.44;1367181;91;21496;-90
2022/03/02 11:16:16;;;;;;;7.30;4.47;;;;;;;10.27;37.73;100812.43;1350580;92;21446;-89
2022/03/02 11:18:54;;;;;;;13.57;6.07;;;;;;;10.05;38.06;100820.09;1357294;91;21430;-88
2022/03/02 11:21:22;;;;;;;13.37;5.83;;;;;;;10.75;39.10;100806.36;1365602;90;21317;-89
2022/03/02 11:23:50;;;;;;;6.77;4.37;;;;;;;11.39;38.12;100800.41;1365468;90;22715;-89
2022/03/02 11:26:30;;;;;;;10.97;3.93;;;;;;;11.38;35.66;100794.77;1366763;90;21384;-89
2022/03/02 11:29:02;;;;;;;5.97;4.60;;;;;;;10.93;36.64;100798.55;1364889;90;22604;-88
2022/03/02 11:31:54;;;;;;;6.63;3.87;;;;;;;11.24;37.71;100783.30;1365417;89;22557;-89
2022/03/02 11:34:30;;;;;;;7.73;5.20;;;;;;;10.86;36.64;100789.02;1350171;90;22350;-89